Time;durP1;ratioP1;P1;durP2;ratioP2;P2;SDS_P1;SDS_P2;PMS_P1;PMS_P2;Temp;Humidity;BMP_temperature;BMP_pressure;BME280_temperature;BME280_humidity;BME280_pressure;Samples;Min_cycle;Max_cycle;Signal;HPM_P1;HPM_P2
2024/01/03 00:00:26;;;;;;;19.52;3.40;;;;;;;10.58;77.26;98680.47;5071980;28;20095;-79
2024/01/03 00:02:52;;;;;;;14.40;3.17;;;;;;;10.80;75.41;98682.75;5053803;28;20056;-77
2024/01/03 00:05:22;;;;;;;9.63;2.35;;;;;;;10.73;75.93;98684.94;5072245;28;20149;-79
2024/01/03 00:07:48;;;;;;;10.50;2.92;;;;;;;10.76;74.44;98684.75;5070482;28;20032;-78
2024/01/03 00:10:45;;;;;;;13.15;2.55;;;;;;;10.67;75.11;98710.88;5034051;28;20033;-78
2024/01/03 00:13:32;;;;;;;15.07;3.13;;;;;;;10.58;74.74;98706.94;5051600;28;20020;-79
2024/01/03 00:16:03;;;;;;;13.38;2.55;;;;;;;10.64;75.36;98693.38;5072073;28;20033;-78
2024/01/03 00:18:49;;;;;;;11.93;2.25;;;;;;;10.75;74.09;98733.31;5071957;28;20387;-79
2024/01/03 00:21:18;;;;;;;15.35;2.28;;;;;;;10.59;73.92;98729.84;5071682;28;20052;-78
2024/01/03 00:23:48;;;;;;;8.63;2.60;;;;;;;10.77;72.49;98704.97;5060234;28;20095;-78
2024/01/03 00:26:14;;;;;;;8.73;2.78;;;;;;;10.82;72.17;98722.41;5071749;28;20093;-79
2024/01/03 00:28:41;;;;;;;9.02;2.08;;;;;;;10.67;72.33;98716.19;5071977;28;20057;-79
2024/01/03 00:31:31;;;;;;;8.75;2.28;;;;;;;10.71;72.46;98717.72;5070344;28;20112;-79
2024/01/03 00:33:56;;;;;;;7.72;2.63;;;;;;;10.73;72.12;98740.53;5034444;28;20037;-78
2024/01/03 00:36:22;;;;;;;10.02;3.28;;;;;;;10.82;71.92;98740.94;5066154;28;20178;-81
2024/01/03 00:38:48;;;;;;;12.30;3.13;;;;;;;10.63;73.26;98733.16;5053532;28;20049;-77
2024/01/03 00:41:14;;;;;;;15.90;3.60;;;;;;;10.63;74.00;98731.38;5071416;28;20491;-80
2024/01/03 00:43:41;;;;;;;14.77;2.83;;;;;;;10.54;75.69;98747.78;5050699;28;20562;-79
2024/01/03 00:46:10;;;;;;;19.38;3.95;;;;;;;10.63;76.30;98738.44;5053478;28;20040;-78
2024/01/03 00:48:36;;;;;;;16.83;3.90;;;;;;;10.73;76.12;98753.75;5071696;28;20045;-77
2024/01/03 00:51:03;;;;;;;15.52;3.58;;;;;;;10.72;76.85;98777.66;5068204;28;20072;-81
2024/01/03 00:53:30;;;;;;;19.88;4.10;;;;;;;10.73;77.83;98766.13;5070121;28;20419;-81
2024/01/03 00:55:56;;;;;;;19.88;3.80;;;;;;;10.50;79.48;98773.53;5071158;28;20032;-78
2024/01/03 00:58:22;;;;;;;18.50;3.90;;;;;;;10.58;79.08;98754.59;5063401;28;20045;-78
2024/01/03 01:00:48;;;;;;;20.40;3.75;;;;;;;10.51;79.83;98762.03;5061248;28;20484;-78
2024/01/03 01:03:14;;;;;;;16.98;3.28;;;;;;;10.47;80.73;98759.63;5074775;28;20470;-78
2024/01/03 01:05:40;;;;;;;19.75;4.55;;;;;;;10.46;81.27;98761.44;5053211;28;20040;-79
2024/01/03 01:08:06;;;;;;;14.13;3.95;;;;;;;10.44;81.72;98758.00;5069857;28;20055;-79
2024/01/03 01:10:31;;;;;;;16.35;3.60;;;;;;;10.47;81.05;98780.81;5070051;28;20040;-79
2024/01/03 01:12:57;;;;;;;14.88;3.00;;;;;;;10.46;81.26;98792.31;5071388;28;20043;-79
2024/01/03 01:15:22;;;;;;;17.65;3.92;;;;;;;10.41;81.28;98779.34;5053443;28;20517;-79
2024/01/03 01:17:48;;;;;;;18.25;4.03;;;;;;;10.43;80.83;98782.75;5071134;28;20115;-80
2024/01/03 01:20:14;;;;;;;14.90;4.32;;;;;;;10.42;80.49;98788.13;5053011;28;20115;-79
2024/01/03 01:22:39;;;;;;;24.23;3.75;;;;;;;10.35;81.83;98792.88;5071339;28;20090;-79
2024/01/03 01:25:05;;;;;;;16.00;3.38;;;;;;;10.41;81.21;98799.63;5070232;28;20040;-78
2024/01/03 01:27:31;;;;;;;16.02;3.00;;;;;;;10.42;80.93;98788.97;5056079;28;20497;-80
2024/01/03 01:29:56;;;;;;;16.63;3.33;;;;;;;10.32;82.29;98796.56;5056801;28;20040;-78
2024/01/03 01:32:21;;;;;;;25.90;5.45;;;;;;;10.33;82.93;98806.19;5073735;28;20116;-79
2024/01/03 01:34:47;;;;;;;17.90;3.88;;;;;;;10.23;84.31;98817.31;5064581;28;20549;-80
2024/01/03 01:37:13;;;;;;;19.60;5.18;;;;;;;10.37;83.57;98808.69;5038522;28;20068;-78
2024/01/03 01:39:38;;;;;;;17.70;4.45;;;;;;;10.32;85.04;98815.06;5064733;28;20471;-80
2024/01/03 01:42:04;;;;;;;21.38;4.78;;;;;;;10.39;84.48;98818.25;5073381;28;20115;-80
2024/01/03 01:44:29;;;;;;;15.27;4.03;;;;;;;10.60;83.40;98813.59;5036808;28;20481;-79
2024/01/03 01:46:56;;;;;;;21.23;4.78;;;;;;;10.36;84.86;98814.91;5054315;28;20031;-78
2024/01/03 01:49:22;;;;;;;20.42;4.07;;;;;;;10.40;84.51;98822.59;5036786;28;20067;-79
2024/01/03 01:51:48;;;;;;;21.85;4.22;;;;;;;10.30;85.73;98809.00;5066391;28;20060;-80
2024/01/03 01:54:15;;;;;;;24.10;5.38;;;;;;;10.35;85.40;98834.38;5051184;28;20368;-79
2024/01/03 01:56:42;;;;;;;17.38;4.18;;;;;;;10.51;84.77;98827.34;5056128;28;20116;-79
2024/01/03 01:59:09;;;;;;;17.73;3.83;;;;;;;10.52;84.89;98826.41;5048118;28;20090;-78
2024/01/03 02:01:35;;;;;;;21.52;4.88;;;;;;;10.57;83.94;98832.28;5071757;28;20053;-80
2024/01/03 02:04:03;;;;;;;17.42;3.63;;;;;;;10.55;84.17;98839.44;5050829;28;20045;-78
2024/01/03 02:06:30;;;;;;;20.40;4.63;;;;;;;10.44;85.26;98834.75;5073995;28;20360;-77
2024/01/03 02:08:55;;;;;;;19.48;4.95;;;;;;;10.48;85.59;98841.59;5055886;28;20037;-78
2024/01/03 02:11:20;;;;;;;30.90;5.15;;;;;;;10.36;86.30;98851.94;5074065;28;20042;-78
2024/01/03 02:13:46;;;;;;;24.65;3.95;;;;;;;10.32;87.06;98854.75;5072861;28;20505;-78
2024/01/03 02:16:12;;;;;;;20.55;3.75;;;;;;;10.30;86.91;98853.13;5045480;28;20463;-78
2024/01/03 02:18:39;;;;;;;19.42;4.30;;;;;;;10.65;85.08;98869.78;5069518;28;20045;-80
2024/01/03 02:21:12;;;;;;;23.80;4.90;;;;;;;10.41;87.21;98861.38;5074081;28;20040;-81
2024/01/03 02:23:37;;;;;;;22.30;4.65;;;;;;;10.36;87.38;98865.19;5073942;28;20033;-78
2024/01/03 02:26:03;;;;;;;25.13;4.88;;;;;;;10.45;86.93;98876.13;5055890;28;20043;-78
2024/01/03 02:28:28;;;;;;;27.65;4.15;;;;;;;10.39;87.40;98857.09;5072524;28;20033;-77
2024/01/03 02:30:54;;;;;;;21.20;3.95;;;;;;;10.33;87.84;98869.69;5072454;28;20124;-78
2024/01/03 02:33:19;;;;;;;26.58;5.00;;;;;;;10.33;87.39;98868.84;5072356;28;20032;-78
2024/01/03 02:35:45;;;;;;;19.65;4.32;;;;;;;10.39;86.74;98871.19;5054976;28;20166;-78
2024/01/03 02:38:10;;;;;;;15.88;2.95;;;;;;;10.39;86.62;98865.03;5051041;28;20030;-77
2024/01/03 02:40:36;;;;;;;19.00;3.72;;;;;;;10.38;86.92;98879.19;5053797;28;20043;-79
2024/01/03 02:43:01;;;;;;;24.75;5.60;;;;;;;10.43;86.30;98848.03;5072455;28;20047;-78
2024/01/03 02:45:27;;;;;;;17.95;3.78;;;;;;;10.37;87.41;98878.34;5073202;28;20446;-77
2024/01/03 02:47:53;;;;;;;17.30;4.13;;;;;;;10.42;86.73;98876.31;5073382;28;20036;-78
2024/01/03 02:50:19;;;;;;;16.88;3.83;;;;;;;10.33;87.77;98868.84;5072125;28;20127;-78
2024/01/03 02:52:44;;;;;;;25.38;5.28;;;;;;;10.57;86.68;98876.44;5072330;28;20109;-78
2024/01/03 02:55:10;;;;;;;26.58;4.25;;;;;;;10.43;87.89;98872.72;5044113;28;20029;-78
2024/01/03 02:57:35;;;;;;;27.23;5.68;;;;;;;10.39;88.14;98875.63;5063990;28;20494;-80
2024/01/03 03:00:01;;;;;;;12.52;3.03;;;;;;;10.41;88.82;98879.00;5055094;28;20121;-78
2024/01/03 03:02:26;;;;;;;19.65;4.97;;;;;;;10.30;89.43;98874.28;5062398;28;20021;-77
2024/01/03 03:04:52;;;;;;;18.63;3.92;;;;;;;10.29;90.13;98885.84;5071695;28;20402;-78
2024/01/03 03:07:18;;;;;;;16.85;3.65;;;;;;;10.37;89.64;98880.97;5073080;28;20448;-78
2024/01/03 03:09:43;;;;;;;27.08;4.65;;;;;;;10.27;90.76;98877.94;5035059;28;20499;-78
2024/01/03 03:12:08;;;;;;;17.90;4.03;;;;;;;10.24;91.29;98880.75;5072778;28;20049;-79
2024/01/03 03:14:34;;;;;;;20.38;4.45;;;;;;;10.29;91.32;98883.19;5071330;28;20045;-78
2024/01/03 03:16:59;;;;;;;18.95;3.75;;;;;;;10.17;92.02;98882.00;5072927;28;20037;-78
2024/01/03 03:19:25;;;;;;;19.10;4.05;;;;;;;10.20;92.32;98886.25;5072797;28;20513;-78
2024/01/03 03:21:51;;;;;;;18.75;3.97;;;;;;;10.10;92.79;98877.94;5065588;28;20029;-79
2024/01/03 03:24:17;;;;;;;24.23;5.05;;;;;;;10.22;92.56;98885.25;5060679;28;20373;-79
2024/01/03 03:26:42;;;;;;;21.52;4.43;;;;;;;10.18;93.03;98888.97;5071129;28;20075;-78
2024/01/03 03:29:08;;;;;;;14.75;4.57;;;;;;;10.29;92.31;98883.19;5054472;28;20503;-78
2024/01/03 03:31:33;;;;;;;23.95;5.30;;;;;;;10.32;91.28;98891.81;5028083;28;20044;-78
2024/01/03 03:33:59;;;;;;;23.00;3.72;;;;;;;10.16;92.66;98877.63;5070242;28;20059;-78
2024/01/03 03:36:24;;;;;;;23.25;4.90;;;;;;;10.04;93.86;98907.31;5036359;28;20033;-78
2024/01/03 03:38:49;;;;;;;20.73;4.32;;;;;;;9.97;94.55;98893.59;5068814;28;20438;-77
2024/01/03 03:41:15;;;;;;;22.13;5.05;;;;;;;10.15;92.47;98883.84;5053677;28;20091;-78
2024/01/03 03:43:41;;;;;;;36.03;5.82;;;;;;;10.13;92.47;98891.00;5070541;28;20040;-78
2024/01/03 03:46:07;;;;;;;22.25;4.78;;;;;;;10.18;92.71;98874.91;5054269;28;20035;-78
2024/01/03 03:48:33;;;;;;;25.15;4.70;;;;;;;10.06;94.59;98898.41;5072193;28;20360;-77
2024/01/03 03:51:03;;;;;;;28.52;4.80;;;;;;;9.97;98.10;98890.94;5070113;28;20060;-77
2024/01/03 03:53:28;;;;;;;17.13;3.60;;;;;;;10.03;99.16;98911.78;5066149;28;20033;-76
2024/01/03 03:55:53;;;;;;;17.27;3.97;;;;;;;9.81;100.00;98911.97;5070720;28;20020;-76
2024/01/03 03:58:19;;;;;;;26.42;4.75;;;;;;;9.63;100.00;98908.47;5054168;28;20155;-76
2024/01/03 04:00:45;;;;;;;23.27;4.75;;;;;;;9.69;100.00;98923.16;5071974;28;20357;-85
2024/01/03 04:03:10;;;;;;;19.10;4.15;;;;;;;9.46;100.00;98905.78;5030434;28;20527;-77
2024/01/03 04:05:37;;;;;;;26.52;4.97;;;;;;;9.26;100.00;98926.06;5070124;28;20052;-79
2024/01/03 04:08:03;;;;;;;20.58;4.60;;;;;;;9.20;100.00;98905.25;5053976;28;20396;-75
2024/01/03 04:10:29;;;;;;;21.58;4.50;;;;;;;9.03;100.00;98903.41;5070443;28;20040;-75
2024/01/03 04:12:57;;;;;;;29.98;5.15;;;;;;;9.03;100.00;98939.50;5071255;28;20478;-77
2024/01/03 04:15:24;;;;;;;29.35;4.68;;;;;;;8.99;100.00;98922.09;5063522;28;20037;-77
2024/01/03 04:17:52;;;;;;;31.20;5.00;;;;;;;8.89;100.00;98924.28;5057049;28;20052;-76
2024/01/03 04:20:18;;;;;;;36.38;6.05;;;;;;;8.86;100.00;98931.50;5070272;28;20028;-77
2024/01/03 04:22:45;;;;;;;27.77;4.60;;;;;;;8.85;100.00;98932.41;5053376;28;20059;-76
2024/01/03 04:25:11;;;;;;;24.85;5.32;;;;;;;8.82;100.00;98931.63;5070098;28;20075;-75
2024/01/03 04:27:37;;;;;;;23.15;4.90;;;;;;;8.88;100.00;98919.06;5071332;28;20062;-76
2024/01/03 04:30:04;;;;;;;25.48;4.68;;;;;;;8.89;100.00;98919.00;5063543;28;20055;-76
2024/01/03 04:32:32;;;;;;;20.67;4.68;;;;;;;8.93;100.00;98922.38;5068659;28;20032;-75
2024/01/03 04:34:58;;;;;;;25.00;4.22;;;;;;;9.01;100.00;98926.38;5067039;28;20028;-75
2024/01/03 04:37:25;;;;;;;18.30;3.85;;;;;;;8.98;100.00;98915.09;5049717;28;20515;-78
2024/01/03 04:39:50;;;;;;;22.60;3.58;;;;;;;8.96;100.00;98925.72;5056880;28;20471;-76
2024/01/03 04:42:16;;;;;;;17.95;3.90;;;;;;;8.94;100.00;98930.22;5069394;28;20112;-77
2024/01/03 04:44:42;;;;;;;18.40;3.42;;;;;;;9.02;100.00;98920.16;5069485;28;20036;-76
2024/01/03 04:47:08;;;;;;;27.20;4.05;;;;;;;8.96;100.00;98923.09;5071664;28;20028;-76
2024/01/03 04:49:34;;;;;;;20.60;3.67;;;;;;;8.99;100.00;98922.94;5071953;28;20086;-78
2024/01/03 04:52:00;;;;;;;20.13;3.95;;;;;;;8.92;100.00;98928.56;5060885;28;20098;-76
2024/01/03 04:54:26;;;;;;;21.67;4.10;;;;;;;8.94;100.00;98929.38;5062806;28;20033;-77
2024/01/03 04:56:52;;;;;;;14.05;3.40;;;;;;;9.00;100.00;98935.22;5066634;28;20040;-75
2024/01/03 04:59:17;;;;;;;14.57;3.13;;;;;;;8.97;100.00;98937.13;5071016;28;20037;-76
2024/01/03 05:01:43;;;;;;;17.45;2.97;;;;;;;9.00;100.00;98932.59;5073373;28;20075;-76
2024/01/03 05:04:08;;;;;;;11.85;2.90;;;;;;;8.98;100.00;98938.88;5075313;28;20450;-76
2024/01/03 05:06:35;;;;;;;19.75;3.38;;;;;;;8.92;100.00;98936.50;5070714;28;20116;-76
2024/01/03 05:09:00;;;;;;;13.88;2.95;;;;;;;8.98;100.00;98941.50;5074473;28;20016;-76
2024/01/03 05:11:26;;;;;;;10.63;2.60;;;;;;;8.96;100.00;98936.28;5069315;28;20098;-77
2024/01/03 05:13:51;;;;;;;10.77;2.22;;;;;;;9.02;100.00;98938.63;5057542;28;20340;-79
2024/01/03 05:16:18;;;;;;;12.93;3.03;;;;;;;9.07;100.00;98932.28;5078693;28;20044;-79
2024/01/03 05:18:43;;;;;;;13.18;2.38;;;;;;;8.97;100.00;98929.22;5073991;28;20048;-78
2024/01/03 05:21:09;;;;;;;11.52;2.78;;;;;;;9.22;100.00;98928.94;5075097;28;20032;-78
2024/01/03 05:23:34;;;;;;;11.27;2.55;;;;;;;8.98;100.00;98929.16;5074098;28;20052;-77
2024/01/03 05:25:59;;;;;;;13.25;2.58;;;;;;;9.01;100.00;98950.13;5075110;28;20391;-77
2024/01/03 05:28:25;;;;;;;10.43;2.47;;;;;;;8.85;100.00;98942.97;5076811;28;20033;-77
2024/01/03 05:30:51;;;;;;;9.30;2.28;;;;;;;8.79;100.00;98942.31;5073708;28;20067;-80
2024/01/03 05:33:16;;;;;;;13.15;2.92;;;;;;;8.81;100.00;98948.41;5073865;28;20566;-77
2024/01/03 05:35:42;;;;;;;8.55;2.00;;;;;;;8.82;100.00;98949.25;5073427;28;20076;-78
2024/01/03 05:38:07;;;;;;;9.27;2.38;;;;;;;8.73;100.00;98941.72;5053620;28;20052;-76
2024/01/03 05:40:32;;;;;;;11.30;2.42;;;;;;;8.79;100.00;98958.16;5055857;28;20040;-77
2024/01/03 05:42:58;;;;;;;13.50;3.42;;;;;;;8.72;100.00;98943.53;5074927;28;20028;-77
2024/01/03 05:45:23;;;;;;;11.25;2.38;;;;;;;8.70;100.00;98949.78;5074771;28;20033;-74
2024/01/03 05:47:49;;;;;;;6.90;2.03;;;;;;;8.73;100.00;98949.66;5073550;28;20173;-76
2024/01/03 05:50:14;;;;;;;7.70;2.10;;;;;;;8.73;100.00;98944.38;5073426;28;20498;-77
2024/01/03 05:52:40;;;;;;;7.43;1.60;;;;;;;8.69;100.00;98951.59;5053572;28;20452;-77
2024/01/03 05:55:06;;;;;;;7.15;2.35;;;;;;;8.76;100.00;98966.22;5073158;28;20045;-80
2024/01/03 05:57:33;;;;;;;8.98;2.15;;;;;;;8.73;100.00;98936.44;5069652;28;20029;-77
2024/01/03 05:59:58;;;;;;;9.30;2.33;;;;;;;8.73;100.00;98949.66;5073361;28;20060;-79
2024/01/03 06:02:24;;;;;;;4.53;1.33;;;;;;;8.65;100.00;98946.50;5073262;28;20051;-78
2024/01/03 06:04:49;;;;;;;7.75;2.25;;;;;;;8.55;100.00;98948.69;5074557;28;20044;-79
2024/01/03 06:07:15;;;;;;;5.60;1.58;;;;;;;8.57;100.00;98954.75;5074332;28;20407;-78
2024/01/03 06:09:40;;;;;;;8.20;2.22;;;;;;;8.54;100.00;98954.91;5074348;28;20064;-77
2024/01/03 06:12:06;;;;;;;9.23;1.88;;;;;;;8.45;100.00;98948.22;5056031;28;20384;-78
2024/01/03 06:14:32;;;;;;;8.18;1.85;;;;;;;8.45;100.00;98960.56;5074378;28;20055;-78
2024/01/03 06:16:57;;;;;;;7.57;1.95;;;;;;;8.41;100.00;98954.59;5074439;28;20028;-81
2024/01/03 06:19:23;;;;;;;4.65;1.20;;;;;;;8.40;100.00;98958.97;5073137;28;20040;-82
2024/01/03 06:21:48;;;;;;;7.47;2.17;;;;;;;8.44;100.00;98956.22;5056416;28;20502;-81
2024/01/03 06:24:13;;;;;;;11.02;2.47;;;;;;;8.42;100.00;98963.34;5073116;28;20048;-79
2024/01/03 06:26:39;;;;;;;7.88;2.00;;;;;;;8.26;100.00;98961.34;5056336;28;20028;-81
2024/01/03 06:29:04;;;;;;;9.43;2.47;;;;;;;8.16;100.00;98966.13;5056214;28;20047;-78
2024/01/03 06:31:30;;;;;;;7.75;2.20;;;;;;;8.24;100.00;98964.97;5053125;28;20044;-80
2024/01/03 06:33:55;;;;;;;12.13;2.40;;;;;;;8.14;100.00;98961.84;5054154;28;20032;-79
2024/01/03 06:36:21;;;;;;;13.05;2.42;;;;;;;8.13;100.00;98970.66;5052618;28;20616;-82
2024/01/03 06:38:47;;;;;;;13.52;2.38;;;;;;;8.11;100.00;98972.50;5037500;28;20457;-78
2024/01/03 06:41:12;;;;;;;6.85;1.98;;;;;;;8.04;100.00;98964.00;5072160;28;20064;-80
2024/01/03 06:43:38;;;;;;;9.00;1.90;;;;;;;8.03;100.00;98970.19;5055626;28;20514;-79
2024/01/03 06:46:03;;;;;;;11.15;2.00;;;;;;;8.04;100.00;98977.19;5046915;28;20516;-80
2024/01/03 06:48:29;;;;;;;6.72;2.05;;;;;;;7.98;100.00;98970.38;5035863;28;20040;-78
2024/01/03 06:50:55;;;;;;;5.50;1.65;;;;;;;7.96;100.00;98977.50;5052927;28;20041;-81
2024/01/03 06:53:20;;;;;;;8.30;1.70;;;;;;;7.90;100.00;98977.75;5071868;28;20044;-77
2024/01/03 06:55:46;;;;;;;10.40;2.17;;;;;;;7.83;100.00;98973.63;5054926;28;20031;-76
2024/01/03 06:58:11;;;;;;;8.45;1.90;;;;;;;7.81;100.00;98974.63;5072019;28;20040;-78
2024/01/03 07:00:37;;;;;;;8.98;1.77;;;;;;;7.75;100.00;98962.56;5053833;28;20503;-79
2024/01/03 07:03:03;;;;;;;4.50;1.48;;;;;;;7.77;100.00;98975.69;5071556;28;20068;-81
2024/01/03 07:05:29;;;;;;;6.22;1.48;;;;;;;7.63;100.00;98963.06;5071508;28;20038;-77
2024/01/03 07:07:56;;;;;;;3.40;1.27;;;;;;;7.68;100.00;98976.91;5071530;28;20032;-78
2024/01/03 07:10:22;;;;;;;5.68;1.42;;;;;;;7.56;100.00;98974.75;5061247;28;20048;-79
2024/01/03 07:12:47;;;;;;;3.13;1.35;;;;;;;7.50;100.00;98992.50;5038162;28;20522;-80
2024/01/03 07:15:17;;;;;;;2.38;0.90;;;;;;;7.41;100.00;98984.97;5085505;28;20067;-76
2024/01/03 07:17:44;;;;;;;4.40;1.10;;;;;;;7.32;100.00;98993.22;5054704;28;20045;-79
2024/01/03 07:20:10;;;;;;;3.28;0.90;;;;;;;7.29;100.00;98999.47;5071458;28;20181;-79
2024/01/03 07:22:35;;;;;;;2.45;1.00;;;;;;;7.27;100.00;99009.19;5072604;28;20029;-80
2024/01/03 07:25:01;;;;;;;3.90;0.95;;;;;;;7.24;100.00;98996.13;5070432;28;20111;-79
2024/01/03 07:27:27;;;;;;;3.00;0.90;;;;;;;7.31;100.00;98994.97;5071376;28;20033;-79
2024/01/03 07:29:53;;;;;;;1.88;0.77;;;;;;;7.15;100.00;98980.69;5072368;28;20394;-78
2024/01/03 07:32:19;;;;;;;4.63;1.23;;;;;;;7.14;100.00;98997.38;5071213;28;20190;-78
2024/01/03 07:34:44;;;;;;;3.72;0.90;;;;;;;7.17;100.00;99001.69;5070882;28;20115;-76
2024/01/03 07:37:10;;;;;;;2.50;1.20;;;;;;;7.18;100.00;99009.53;5050821;28;20048;-77
2024/01/03 07:39:35;;;;;;;10.95;1.20;;;;;;;7.21;100.00;99011.19;5062208;28;20036;-78
2024/01/03 07:42:01;;;;;;;4.30;1.45;;;;;;;7.18;100.00;99016.56;5070998;28;20039;-78
2024/01/03 07:44:33;;;;;;;4.25;1.40;;;;;;;7.26;100.00;99027.69;5087655;28;20459;-79
2024/01/03 07:46:59;;;;;;;3.88;1.35;;;;;;;7.21;100.00;99019.09;5053231;28;20507;-76
2024/01/03 07:49:24;;;;;;;5.03;1.67;;;;;;;7.15;100.00;99021.97;5057595;28;20111;-76
2024/01/03 07:51:51;;;;;;;5.15;1.67;;;;;;;7.19;100.00;99015.66;5053160;28;20426;-77
2024/01/03 07:54:17;;;;;;;4.38;1.73;;;;;;;7.17;100.00;99028.00;5070586;28;20123;-77
2024/01/03 07:56:42;;;;;;;4.97;1.45;;;;;;;7.15;100.00;99028.09;5068273;28;20535;-78
2024/01/03 07:59:08;;;;;;;4.82;1.63;;;;;;;7.17;100.00;99028.88;5067715;28;20041;-77
2024/01/03 08:01:33;;;;;;;3.33;1.73;;;;;;;7.29;100.00;99038.09;5071798;28;20046;-77
2024/01/03 08:03:59;;;;;;;4.13;1.77;;;;;;;7.27;100.00;99040.78;5057986;28;20092;-77
2024/01/03 08:06:24;;;;;;;5.05;2.28;;;;;;;7.27;100.00;99035.53;5064030;28;20127;-77
2024/01/03 08:08:50;;;;;;;4.13;1.75;;;;;;;7.28;100.00;99044.28;5064663;28;20036;-78
2024/01/03 08:11:15;;;;;;;7.40;2.38;;;;;;;7.38;100.00;99037.75;5069808;28;20452;-80
2024/01/03 08:13:40;;;;;;;4.65;2.20;;;;;;;7.30;100.00;99037.19;5068296;28;20039;-83
2024/01/03 08:16:06;;;;;;;6.78;2.40;;;;;;;7.32;100.00;99035.38;5060445;28;20036;-79
2024/01/03 08:18:32;;;;;;;5.28;2.25;;;;;;;7.35;100.00;99037.88;5070247;28;20119;-79
2024/01/03 08:20:58;;;;;;;9.27;2.67;;;;;;;7.34;100.00;99041.41;5069989;28;20033;-80
2024/01/03 08:23:23;;;;;;;11.70;2.75;;;;;;;7.41;100.00;99040.25;5071473;28;20328;-78
2024/01/03 08:25:49;;;;;;;8.70;2.30;;;;;;;7.41;100.00;99040.25;5070473;28;20134;-77
2024/01/03 08:28:14;;;;;;;14.45;2.70;;;;;;;7.42;100.00;99036.72;5071427;28;20048;-78
2024/01/03 08:30:40;;;;;;;10.65;2.53;;;;;;;7.46;100.00;99042.72;5071351;28;20040;-76
2024/01/03 08:33:06;;;;;;;9.13;2.42;;;;;;;7.47;100.00;99033.91;5071112;28;20032;-76
2024/01/03 08:35:31;;;;;;;12.27;2.72;;;;;;;7.51;100.00;99046.88;5069002;28;20467;-77
2024/01/03 08:37:56;;;;;;;7.85;2.20;;;;;;;7.56;100.00;99051.13;5069666;28;20033;-77
2024/01/03 08:40:22;;;;;;;12.52;3.30;;;;;;;7.60;100.00;99035.16;5051484;28;20043;-76
2024/01/03 08:42:48;;;;;;;7.35;1.90;;;;;;;7.60;100.00;99050.97;5033249;28;20123;-77
2024/01/03 08:45:13;;;;;;;11.45;2.75;;;;;;;7.67;100.00;99043.69;5055011;28;20045;-76
2024/01/03 08:47:38;;;;;;;10.68;2.28;;;;;;;7.70;100.00;99047.06;5055003;28;20028;-75
2024/01/03 08:50:04;;;;;;;12.07;2.20;;;;;;;7.75;100.00;99054.78;5069190;28;20408;-78
2024/01/03 08:52:29;;;;;;;17.63;2.88;;;;;;;7.73;100.00;99059.25;5061577;28;20047;-76
2024/01/03 08:54:56;;;;;;;14.93;2.58;;;;;;;7.74;100.00;99056.56;5062810;28;20028;-75
2024/01/03 08:57:21;;;;;;;14.90;3.10;;;;;;;7.76;100.00;99059.13;5067104;28;20043;-75
2024/01/03 08:59:47;;;;;;;14.32;2.80;;;;;;;7.80;100.00;99065.16;5064378;28;20041;-75
2024/01/03 09:02:13;;;;;;;13.55;2.70;;;;;;;7.81;100.00;99067.69;5066199;28;20044;-75
2024/01/03 09:04:40;;;;;;;13.73;3.28;;;;;;;7.91;100.00;99070.84;5061785;28;20060;-75
2024/01/03 09:07:06;;;;;;;19.05;3.65;;;;;;;7.88;100.00;99065.69;5069669;28;20450;-75
2024/01/03 09:09:34;;;;;;;20.00;3.28;;;;;;;7.96;100.00;99074.16;5066573;28;20040;-75
2024/01/03 09:12:00;;;;;;;17.08;3.33;;;;;;;8.00;100.00;99067.84;5044852;28;20062;-75
2024/01/03 09:14:26;;;;;;;19.10;3.35;;;;;;;7.98;100.00;99075.81;5042268;28;20029;-75
2024/01/03 09:16:52;;;;;;;13.95;3.65;;;;;;;8.06;100.00;99077.28;5064622;28;20032;-75
2024/01/03 09:19:18;;;;;;;18.10;3.90;;;;;;;8.08;100.00;99067.53;5050714;28;20033;-75
2024/01/03 09:21:47;;;;;;;21.27;3.97;;;;;;;8.08;100.00;99080.72;5050672;28;20460;-75
2024/01/03 09:24:13;;;;;;;23.15;3.53;;;;;;;8.13;100.00;99081.41;5061050;28;20363;-75
2024/01/03 09:26:38;;;;;;;22.65;4.38;;;;;;;8.13;100.00;99086.66;5051040;28;20040;-75
2024/01/03 09:29:05;;;;;;;23.70;4.50;;;;;;;8.15;100.00;99084.84;5055541;28;20456;-75
2024/01/03 09:31:33;;;;;;;22.25;3.80;;;;;;;8.17;100.00;99091.75;5067219;28;20371;-76
2024/01/03 09:33:58;;;;;;;21.45;4.13;;;;;;;8.25;100.00;99082.69;5055598;28;20028;-78
2024/01/03 09:36:24;;;;;;;21.58;4.43;;;;;;;8.31;100.00;99093.00;5066467;28;20549;-76
2024/01/03 09:38:49;;;;;;;22.40;4.00;;;;;;;8.31;100.00;99085.94;5054098;28;20167;-76
2024/01/03 09:41:15;;;;;;;25.73;4.32;;;;;;;8.42;100.00;99087.31;5049247;28;20056;-75
2024/01/03 09:43:48;;;;;;;23.00;4.40;;;;;;;8.46;100.00;99089.78;5030552;28;20048;-75
2024/01/03 09:46:14;;;;;;;19.98;4.13;;;;;;;8.54;100.00;99085.03;5071169;28;20061;-76
2024/01/03 09:48:41;;;;;;;24.42;4.18;;;;;;;8.60;100.00;99094.47;5061781;28;20502;-75
2024/01/03 09:51:07;;;;;;;21.85;4.07;;;;;;;8.61;100.00;99089.13;5054219;28;20377;-75
2024/01/03 09:53:33;;;;;;;13.30;3.88;;;;;;;8.75;100.00;99092.94;5072104;28;20071;-75
2024/01/03 09:56:00;;;;;;;18.77;3.60;;;;;;;8.74;100.00;99097.38;5071745;28;20439;-75
2024/01/03 09:58:27;;;;;;;18.90;3.60;;;;;;;8.74;100.00;99093.88;5064631;28;20041;-75
2024/01/03 10:00:53;;;;;;;17.92;4.35;;;;;;;8.86;100.00;99093.38;5047390;28;20367;-75
2024/01/03 10:03:18;;;;;;;17.98;3.45;;;;;;;8.74;100.00;99097.38;5067735;28;20058;-75
2024/01/03 10:05:45;;;;;;;15.82;3.10;;;;;;;8.86;100.00;99109.22;5061926;28;20111;-76
2024/01/03 10:08:17;;;;;;;22.45;4.55;;;;;;;8.86;100.00;99093.38;5065741;28;20115;-76
2024/01/03 10:10:45;;;;;;;25.23;4.20;;;;;;;8.83;100.00;99097.00;5068004;28;20024;-76
2024/01/03 10:13:23;;;;;;;22.10;3.97;;;;;;;8.91;100.00;99106.38;5072283;28;20043;-76
2024/01/03 10:15:49;;;;;;;22.85;4.18;;;;;;;8.89;100.00;99110.84;5072019;28;20087;-75
2024/01/03 10:18:15;;;;;;;22.40;4.18;;;;;;;8.91;100.00;99112.50;5073686;28;20094;-75
2024/01/03 10:20:41;;;;;;;20.35;4.75;;;;;;;9.01;100.00;99129.66;5071708;28;20032;-76
2024/01/03 10:23:09;;;;;;;28.23;4.90;;;;;;;8.92;100.00;99110.72;5059329;28;20130;-75
2024/01/03 10:25:35;;;;;;;21.15;3.78;;;;;;;8.94;100.00;99122.94;5052621;28;20112;-76
2024/01/03 10:28:06;;;;;;;28.15;4.20;;;;;;;8.91;100.00;99130.13;5053462;28;20043;-75
2024/01/03 10:30:32;;;;;;;23.98;4.43;;;;;;;8.94;100.00;99116.78;5070182;28;20037;-76
2024/01/03 10:33:02;;;;;;;24.60;4.72;;;;;;;8.98;100.00;99123.69;5066304;28;20396;-75
2024/01/03 10:35:41;;;;;;;19.42;4.28;;;;;;;9.04;100.00;99120.75;5057035;28;20435;-76
2024/01/03 10:38:06;;;;;;;23.48;4.70;;;;;;;9.00;100.00;99124.44;5075883;28;20469;-76
2024/01/03 10:40:39;;;;;;;26.48;4.72;;;;;;;9.09;100.00;99131.97;5054637;28;20033;-76
2024/01/03 10:43:08;;;;;;;24.25;4.20;;;;;;;9.12;100.00;99133.63;5064514;28;20090;-75
2024/01/03 10:45:33;;;;;;;26.98;4.38;;;;;;;9.16;100.00;99122.00;5061139;28;20077;-76
2024/01/03 10:47:59;;;;;;;24.48;4.80;;;;;;;9.12;100.00;99129.19;5057092;28;20292;-76
2024/01/03 10:50:25;;;;;;;32.17;5.75;;;;;;;9.18;100.00;99117.53;5060094;28;20072;-76
2024/01/03 10:52:57;;;;;;;27.92;5.90;;;;;;;9.17;100.00;99121.97;5054366;28;20040;-76
2024/01/03 10:55:32;;;;;;;26.00;4.75;;;;;;;9.16;100.00;99116.72;5060743;28;20040;-76
2024/01/03 10:57:58;;;;;;;22.90;4.68;;;;;;;9.36;100.00;99131.69;5055220;28;20285;-76
2024/01/03 11:00:30;;;;;;;36.08;5.85;;;;;;;9.28;100.00;99123.28;5052213;28;20395;-76
2024/01/03 11:03:26;;;;;;;19.30;4.55;;;;;;;9.38;100.00;99114.84;5061884;28;20036;-76
2024/01/03 11:06:22;;;;;;;25.15;5.28;;;;;;;9.44;100.00;99109.28;5051379;28;20052;-76
2024/01/03 11:08:53;;;;;;;24.02;5.05;;;;;;;9.36;100.00;99111.41;5072812;28;20096;-76
2024/01/03 11:11:32;;;;;;;26.77;4.82;;;;;;;9.42;100.00;99113.81;5072552;28;20060;-76
2024/01/03 11:13:59;;;;;;;32.40;5.10;;;;;;;9.43;100.00;99109.38;5072867;28;20120;-76
2024/01/03 11:16:36;;;;;;;26.45;4.95;;;;;;;9.48;100.00;99116.16;5071142;28;20051;-76
2024/01/03 11:19:02;;;;;;;27.05;5.72;;;;;;;9.53;100.00;99110.66;5072680;28;20032;-76
2024/01/03 11:21:30;;;;;;;30.42;5.20;;;;;;;9.44;100.00;99114.56;5071590;28;20117;-76
2024/01/03 11:23:56;;;;;;;23.20;5.13;;;;;;;9.42;100.00;99110.28;5057249;28;20029;-76